createdAt,value
2022-10-03T00:02:37.754Z,6.43
2022-10-03T00:05:29.018Z,6.55
2022-10-03T00:08:15.110Z,6.22
2022-10-03T00:11:00.150Z,6.82
2022-10-03T00:13:54.596Z,4.82
2022-10-03T00:16:48.679Z,5.15
2022-10-03T00:19:45.435Z,6.40
2022-10-03T00:22:33.869Z,6.78
2022-10-03T00:25:37.370Z,5.72
2022-10-03T00:28:13.894Z,5.85
2022-10-03T00:30:56.737Z,5.68
2022-10-03T00:33:44.553Z,6.75
2022-10-03T00:36:21.746Z,8.00
2022-10-03T00:38:59.765Z,5.88
2022-10-03T00:41:26.310Z,5.60
2022-10-03T00:44:34.242Z,5.68
2022-10-03T00:47:03.447Z,5.32
2022-10-03T00:49:50.194Z,5.10
2022-10-03T00:52:36.659Z,6.35
2022-10-03T00:55:34.536Z,6.40
2022-10-03T00:58:00.965Z,6.88
2022-10-03T01:00:30.515Z,6.85
2022-10-03T01:03:28.231Z,6.88
2022-10-03T01:06:19.746Z,7.13
2022-10-03T01:09:10.649Z,7.68
2022-10-03T01:12:04.561Z,6.95
2022-10-03T01:14:52.429Z,8.82
2022-10-03T01:17:37.381Z,9.45
2022-10-03T01:20:28.578Z,9.55
2022-10-03T01:23:32.747Z,10.15
2022-10-03T01:26:05.175Z,9.55
2022-10-03T01:29:25.842Z,11.05
2022-10-03T01:32:16.847Z,7.20
2022-10-03T01:35:10.605Z,8.02
2022-10-03T01:38:09.053Z,9.35
2022-10-03T01:41:03.104Z,8.55
2022-10-03T01:43:51.352Z,10.05
2022-10-03T01:46:22.733Z,8.10
2022-10-03T01:48:55.327Z,9.45
2022-10-03T01:51:29.640Z,8.45
2022-10-03T01:54:30.578Z,10.23
2022-10-03T01:57:35.205Z,8.80
2022-10-03T02:00:10.680Z,9.02
2022-10-03T02:02:44.226Z,9.30
2022-10-03T02:05:48.101Z,8.52
2022-10-03T02:08:17.113Z,8.80
2022-10-03T02:10:52.610Z,9.57
2022-10-03T02:13:28.222Z,8.43
2022-10-03T02:16:09.588Z,9.63
2022-10-03T02:18:46.239Z,9.05
2022-10-03T02:21:20.946Z,9.85
2022-10-03T02:23:49.420Z,9.65
2022-10-03T02:26:31.314Z,8.57
2022-10-03T02:29:11.177Z,8.32
2022-10-03T02:31:54.809Z,8.70
2022-10-03T02:34:24.277Z,8.07
2022-10-03T02:37:19.364Z,8.15
2022-10-03T02:40:18.410Z,8.52
2022-10-03T02:43:12.014Z,8.55
2022-10-03T02:45:50.621Z,8.65
2022-10-03T02:48:47.976Z,7.57
2022-10-03T02:51:52.109Z,7.38
2022-10-03T02:55:01.715Z,8.45
2022-10-03T02:57:41.232Z,9.82
2022-10-03T03:00:14.917Z,7.82
2022-10-03T03:05:52.476Z,6.78
2022-10-03T03:08:28.016Z,7.78
2022-10-03T03:11:26.341Z,7.07
2022-10-03T03:14:18.611Z,7.07
2022-10-03T03:17:01.364Z,8.10
2022-10-03T03:19:46.835Z,6.90
2022-10-03T03:22:45.734Z,7.88
2022-10-03T03:25:24.496Z,8.55
2022-10-03T03:28:27.183Z,9.20
2022-10-03T03:31:16.566Z,8.55
2022-10-03T03:34:07.530Z,8.05
2022-10-03T03:36:39.847Z,9.70
2022-10-03T03:39:24.092Z,9.15
2022-10-03T03:42:13.039Z,7.53
2022-10-03T03:44:45.446Z,9.35
2022-10-03T03:47:22.028Z,8.68
2022-10-03T03:50:06.674Z,9.85
2022-10-03T03:53:03.080Z,8.48
2022-10-03T03:55:32.529Z,10.38
2022-10-03T03:58:08.809Z,9.23
2022-10-03T04:01:00.005Z,8.32
2022-10-03T04:03:58.123Z,8.70
2022-10-03T04:06:47.946Z,8.52
2022-10-03T04:09:30.328Z,9.00
2022-10-03T04:12:09.303Z,9.05
2022-10-03T04:14:38.559Z,8.05
2022-10-03T04:17:29.282Z,8.70
2022-10-03T04:20:27.470Z,7.65
2022-10-03T04:23:12.107Z,8.02
2022-10-03T04:26:00.090Z,7.60
2022-10-03T04:28:40.611Z,8.27
2022-10-03T04:31:25.891Z,7.25
2022-10-03T04:33:58.805Z,7.60
2022-10-03T04:36:49.919Z,7.82
2022-10-03T04:39:34.867Z,9.35
2022-10-03T04:42:10.390Z,7.72
2022-10-03T04:44:45.733Z,7.53
2022-10-03T04:47:48.649Z,6.55
2022-10-03T04:50:40.654Z,8.73
2022-10-03T04:53:25.926Z,7.25
2022-10-03T04:56:29.874Z,7.30
2022-10-03T04:59:27.453Z,9.27
2022-10-03T05:02:16.693Z,8.85
2022-10-03T05:05:13.767Z,8.15
2022-10-03T05:08:12.653Z,8.90
2022-10-03T05:10:39.133Z,10.40
2022-10-03T05:13:12.309Z,9.65
2022-10-03T05:15:54.693Z,11.70
2022-10-03T05:18:40.483Z,10.25
2022-10-03T05:21:16.322Z,8.95
2022-10-03T05:24:15.573Z,10.02
2022-10-03T05:26:58.841Z,8.45
2022-10-03T05:29:37.568Z,9.20
2022-10-03T05:32:20.140Z,10.90
2022-10-03T05:35:23.479Z,8.18
2022-10-03T05:38:34.131Z,6.95
2022-10-03T05:41:26.489Z,10.77
2022-10-03T05:44:01.656Z,8.23
2022-10-03T05:46:56.139Z,9.25
2022-10-03T05:50:03.773Z,7.88
2022-10-03T05:52:47.899Z,11.13
2022-10-03T05:55:51.575Z,10.05
2022-10-03T05:59:02.802Z,7.97
2022-10-03T06:01:47.502Z,10.07
2022-10-03T06:04:35.674Z,7.85
2022-10-03T06:07:23.570Z,7.68
2022-10-03T06:10:38.663Z,8.43
2022-10-03T06:13:13.807Z,7.65
2022-10-03T06:15:54.647Z,8.38
2022-10-03T06:18:52.712Z,7.40
2022-10-03T06:21:30.346Z,7.53
2022-10-03T06:24:48.139Z,7.90
2022-10-03T06:27:52.814Z,10.48
2022-10-03T06:30:56.077Z,7.28
2022-10-03T06:33:41.237Z,8.48
2022-10-03T06:36:07.687Z,10.15
2022-10-03T06:38:43.658Z,9.65
2022-10-03T06:41:26.016Z,8.68
2022-10-03T06:44:15.566Z,9.50
2022-10-03T06:47:16.182Z,9.27
2022-10-03T06:49:45.617Z,9.43
2022-10-03T06:52:29.218Z,10.00
2022-10-03T06:55:21.469Z,9.57
2022-10-03T06:58:25.722Z,11.25
2022-10-03T07:01:24.551Z,10.20
2022-10-03T07:04:10.299Z,11.38
2022-10-03T07:07:14.159Z,11.15
2022-10-03T07:10:13.022Z,10.73
2022-10-03T07:13:03.836Z,10.43
2022-10-03T07:16:25.415Z,9.73
2022-10-03T07:19:20.312Z,9.63
2022-10-03T07:22:14.455Z,9.32
2022-10-03T07:25:01.881Z,9.50
2022-10-03T07:27:51.563Z,10.27
2022-10-03T07:30:23.852Z,11.02
2022-10-03T07:33:28.145Z,11.25
2022-10-03T07:36:40.479Z,10.40
2022-10-03T07:39:18.953Z,10.85
2022-10-03T07:42:08.935Z,11.55
2022-10-03T07:45:00.514Z,9.57
2022-10-03T07:47:45.937Z,9.63
2022-10-03T07:50:21.391Z,10.00
2022-10-03T07:53:18.031Z,9.40
2022-10-03T07:56:20.146Z,9.25
2022-10-03T07:59:02.610Z,8.88
2022-10-03T08:01:47.242Z,9.65
2022-10-03T08:04:28.770Z,9.32
2022-10-03T08:07:20.362Z,9.18
2022-10-03T08:10:09.394Z,9.18
2022-10-03T08:13:03.637Z,8.40
2022-10-03T08:15:45.381Z,8.18
2022-10-03T08:18:38.026Z,8.68
2022-10-03T08:21:17.752Z,8.30
2022-10-03T08:24:04.318Z,8.50
2022-10-03T08:26:47.372Z,9.02
2022-10-03T08:29:51.870Z,9.18
2022-10-03T08:35:02.915Z,8.77
2022-10-03T08:37:44.480Z,8.40
2022-10-03T08:40:19.985Z,8.35
2022-10-03T08:43:05.928Z,8.82
2022-10-03T08:45:53.831Z,9.80
2022-10-03T08:48:41.897Z,8.30
2022-10-03T08:51:11.377Z,8.70
2022-10-03T08:53:38.938Z,8.55
2022-10-03T08:56:24.521Z,8.50
2022-10-03T08:59:02.905Z,9.93
2022-10-03T09:02:26.825Z,9.60
2022-10-03T09:05:18.149Z,9.70
2022-10-03T09:08:10.990Z,8.73
2022-10-03T09:10:54.891Z,9.00
2022-10-03T09:16:20.771Z,8.93
2022-10-03T09:18:59.291Z,8.57
2022-10-03T09:21:36.414Z,8.50
2022-10-03T09:24:19.619Z,8.82
2022-10-03T09:27:24.306Z,9.77
2022-10-03T09:30:08.046Z,9.00
2022-10-03T09:33:16.024Z,8.70
2022-10-03T09:36:04.462Z,10.90
2022-10-03T09:38:45.871Z,9.50
2022-10-03T09:41:30.470Z,10.88
2022-10-03T09:44:18.812Z,9.60
2022-10-03T09:47:33.871Z,8.35
2022-10-03T09:50:21.819Z,7.75
2022-10-03T09:53:07.073Z,8.30
2022-10-03T09:56:07.730Z,7.90
2022-10-03T09:58:40.927Z,7.57
2022-10-03T10:01:19.407Z,8.23
2022-10-03T10:03:45.981Z,8.40
2022-10-03T10:06:48.690Z,7.68
2022-10-03T10:09:54.082Z,8.32
2022-10-03T10:12:35.711Z,7.32
2022-10-03T10:15:17.006Z,6.97
2022-10-03T10:17:49.403Z,6.20
2022-10-03T10:21:08.013Z,6.20
2022-10-03T10:23:48.668Z,6.40
2022-10-03T10:26:36.858Z,7.30
2022-10-03T10:29:33.193Z,7.43
2022-10-03T10:32:21.576Z,6.47
2022-10-03T10:35:12.665Z,6.65
2022-10-03T10:37:54.743Z,6.35
2022-10-03T10:40:40.714Z,6.35
2022-10-03T10:43:24.131Z,5.80
2022-10-03T10:46:06.800Z,5.85
2022-10-03T10:49:11.039Z,5.80
2022-10-03T10:51:52.769Z,4.88
2022-10-03T10:54:34.510Z,4.80
2022-10-03T10:57:04.020Z,5.80
2022-10-03T10:59:55.698Z,4.43
2022-10-03T11:02:46.402Z,4.68
2022-10-03T11:05:25.135Z,4.90
2022-10-03T11:08:29.179Z,5.25
2022-10-03T11:11:21.224Z,4.80
2022-10-03T11:14:06.221Z,4.68
2022-10-03T11:17:00.749Z,4.82
2022-10-03T11:19:36.446Z,4.32
2022-10-03T11:22:18.333Z,4.88
2022-10-03T11:25:22.103Z,4.70
2022-10-03T11:28:07.301Z,5.18
2022-10-03T11:31:07.763Z,4.80
2022-10-03T11:34:25.812Z,5.20
2022-10-03T11:37:07.476Z,4.85
2022-10-03T11:39:55.337Z,5.05
2022-10-03T11:42:21.784Z,4.50
2022-10-03T11:45:11.181Z,4.70
2022-10-03T11:47:56.315Z,4.97
2022-10-03T11:51:15.893Z,5.55
2022-10-03T11:54:19.506Z,5.88
2022-10-03T11:56:52.176Z,5.75
2022-10-03T11:59:36.055Z,6.07
2022-10-03T12:05:05.179Z,5.38
2022-10-03T12:08:03.471Z,5.40
2022-10-03T12:10:54.392Z,5.80
2022-10-03T12:13:36.563Z,5.13
2022-10-03T12:16:12.350Z,5.20
2022-10-03T12:18:42.739Z,5.13
2022-10-03T12:21:29.579Z,5.00
2022-10-03T12:24:14.783Z,4.80
2022-10-03T12:26:59.050Z,4.93
2022-10-03T12:29:29.918Z,5.50
2022-10-03T12:32:12.910Z,4.60
2022-10-03T12:34:55.134Z,4.57
2022-10-03T12:37:34.171Z,3.90
2022-10-03T12:40:38.225Z,4.20
2022-10-03T12:43:42.076Z,4.05
2022-10-03T12:46:17.258Z,3.58
2022-10-03T12:48:55.555Z,3.38
2022-10-03T12:51:43.416Z,3.80
2022-10-03T12:55:05.428Z,3.58
2022-10-03T12:57:49.837Z,3.42
2022-10-03T13:00:34.129Z,3.72
2022-10-03T13:03:26.048Z,3.50
2022-10-03T13:06:16.070Z,3.42
2022-10-03T13:09:11.883Z,3.15
2022-10-03T13:11:56.913Z,3.00
2022-10-03T13:14:44.829Z,2.85
2022-10-03T13:17:20.349Z,3.00
2022-10-03T13:20:01.330Z,2.88
2022-10-03T13:23:03.301Z,3.03
2022-10-03T13:25:41.479Z,2.83
2022-10-03T13:28:22.327Z,2.63
2022-10-03T13:30:57.299Z,2.60
2022-10-03T13:33:28.521Z,2.70
2022-10-03T13:36:05.577Z,2.60
2022-10-03T13:38:55.129Z,2.72
2022-10-03T13:41:34.122Z,2.72
2022-10-03T13:44:23.685Z,2.25
2022-10-03T13:46:54.318Z,2.30
2022-10-03T13:49:31.987Z,2.40
2022-10-03T13:52:30.667Z,2.40
2022-10-03T13:55:21.996Z,2.72
2022-10-03T13:57:56.848Z,3.15
2022-10-03T14:00:26.297Z,2.50
2022-10-03T14:03:14.790Z,2.45
2022-10-03T14:06:00.365Z,2.60
2022-10-03T14:08:45.781Z,2.63
2022-10-03T14:11:25.919Z,2.25
2022-10-03T14:14:08.243Z,2.70
2022-10-03T14:16:50.472Z,2.50
2022-10-03T14:19:23.523Z,2.50
2022-10-03T14:22:14.895Z,2.50
2022-10-03T14:24:57.843Z,2.58
2022-10-03T14:27:48.599Z,2.53
2022-10-03T14:30:21.681Z,2.50
2022-10-03T14:33:30.337Z,2.75
2022-10-03T14:36:11.536Z,2.40
2022-10-03T14:39:03.472Z,2.60
2022-10-03T14:41:32.768Z,2.90
2022-10-03T14:44:01.727Z,2.70
2022-10-03T14:46:34.110Z,2.60
2022-10-03T14:49:12.985Z,2.67
2022-10-03T14:51:54.176Z,2.80
2022-10-03T14:54:24.215Z,2.75
2022-10-03T14:56:52.336Z,2.70
2022-10-03T14:59:34.147Z,2.58
2022-10-03T15:02:22.779Z,2.80
2022-10-03T15:04:54.411Z,2.83
2022-10-03T15:07:35.980Z,2.70
2022-10-03T15:10:06.624Z,2.53
2022-10-03T15:12:34.904Z,2.78
2022-10-03T15:15:35.694Z,2.72
2022-10-03T15:18:04.743Z,2.28
2022-10-03T15:20:39.839Z,2.67
2022-10-03T15:23:17.922Z,3.75
2022-10-03T15:25:51.911Z,2.97
2022-10-03T15:28:27.962Z,2.80
2022-10-03T15:30:57.719Z,2.90
2022-10-03T15:33:33.358Z,2.20
2022-10-03T15:36:06.232Z,2.50
2022-10-03T15:38:37.983Z,2.70
2022-10-03T15:41:17.728Z,2.83
2022-10-03T15:43:52.265Z,2.75
2022-10-03T15:46:46.289Z,2.45
2022-10-03T15:49:23.570Z,2.67
2022-10-03T15:51:50.423Z,2.47
2022-10-03T15:54:23.172Z,2.75
2022-10-03T15:56:57.038Z,2.43
2022-10-03T15:59:28.321Z,2.70
2022-10-03T16:01:56.286Z,2.40
2022-10-03T16:04:24.576Z,2.75
2022-10-03T16:06:59.946Z,2.30
2022-10-03T16:09:46.277Z,2.30
2022-10-03T16:12:52.354Z,2.25
2022-10-03T16:15:21.262Z,2.60
2022-10-03T16:17:58.564Z,3.08
2022-10-03T16:20:35.971Z,3.47
2022-10-03T16:23:19.674Z,4.40
2022-10-03T16:25:55.254Z,4.35
2022-10-03T16:28:47.184Z,3.53
2022-10-03T16:31:21.848Z,3.22
2022-10-03T16:33:58.420Z,2.80
2022-10-03T16:36:25.626Z,3.05
2022-10-03T16:38:59.649Z,2.95
2022-10-03T16:41:35.045Z,3.20
2022-10-03T16:44:20.072Z,3.20
2022-10-03T16:46:48.190Z,3.00
2022-10-03T16:49:45.286Z,2.85
2022-10-03T16:52:18.802Z,2.90
2022-10-03T16:54:48.291Z,2.75
2022-10-03T16:57:20.544Z,3.10
2022-10-03T16:59:52.001Z,2.80
2022-10-03T17:02:24.340Z,2.90
2022-10-03T17:05:02.930Z,3.13
2022-10-03T17:07:36.150Z,4.25
2022-10-03T17:10:03.474Z,11.40
2022-10-03T17:12:37.151Z,9.30
2022-10-03T17:18:02.332Z,6.10
2022-10-03T17:20:50.862Z,5.60
2022-10-03T17:23:39.550Z,4.90
2022-10-03T17:26:12.231Z,5.70
2022-10-03T17:28:47.700Z,6.53
2022-10-03T17:31:30.456Z,6.28
2022-10-03T17:34:09.683Z,5.72
2022-10-03T17:37:13.453Z,5.50
2022-10-03T17:39:54.610Z,5.03
2022-10-03T17:42:40.840Z,6.97
2022-10-03T17:45:33.446Z,7.78
2022-10-03T17:48:06.041Z,10.15
2022-10-03T17:50:45.479Z,12.75
2022-10-03T17:53:30.270Z,11.82
2022-10-03T17:56:21.049Z,11.45
2022-10-03T17:59:27.973Z,9.13
2022-10-03T18:02:01.493Z,8.55
2022-10-03T18:04:35.935Z,8.40
2022-10-03T18:07:33.578Z,8.23
2022-10-03T18:10:00.717Z,12.43
2022-10-03T18:12:36.223Z,10.65
2022-10-03T18:15:22.622Z,10.95
2022-10-03T18:18:37.539Z,16.73
2022-10-03T18:21:25.984Z,20.77
2022-10-03T18:23:55.923Z,28.67
2022-10-03T18:26:28.526Z,30.95
2022-10-03T18:29:37.131Z,26.20
2022-10-03T18:32:13.945Z,21.85
2022-10-03T18:35:06.570Z,17.88
2022-10-03T18:37:33.024Z,17.20
2022-10-03T18:40:00.263Z,16.67
2022-10-03T18:42:29.706Z,17.48
2022-10-03T18:44:58.234Z,20.40
2022-10-03T18:47:31.038Z,23.33
2022-10-03T18:50:26.192Z,22.33
2022-10-03T18:52:57.321Z,25.85
2022-10-03T18:55:34.394Z,27.05
2022-10-03T18:58:14.877Z,27.38
2022-10-03T19:00:51.531Z,31.20
2022-10-03T19:03:23.228Z,25.75
2022-10-03T19:06:20.578Z,25.48
2022-10-03T19:08:55.265Z,28.05
2022-10-03T19:11:28.667Z,25.75
2022-10-03T19:14:05.165Z,22.55
2022-10-03T19:16:47.443Z,22.55
2022-10-03T19:19:47.419Z,22.27
2022-10-03T19:22:16.778Z,24.55
2022-10-03T19:24:58.341Z,13.15
2022-10-03T19:27:41.978Z,10.00
2022-10-03T19:30:09.406Z,10.15
2022-10-03T19:32:41.097Z,11.95
2022-10-03T19:35:14.203Z,10.95
2022-10-03T19:37:47.299Z,10.10
2022-10-03T19:40:42.334Z,9.07
2022-10-03T19:43:20.905Z,11.48
2022-10-03T19:45:53.906Z,11.10
2022-10-03T19:48:22.528Z,15.68
2022-10-03T19:50:50.429Z,11.95
2022-10-03T19:53:18.530Z,13.23
2022-10-03T19:55:47.191Z,14.90
2022-10-03T19:58:24.710Z,14.07
2022-10-03T20:00:54.550Z,13.15
2022-10-03T20:03:52.201Z,12.73
2022-10-03T20:06:51.654Z,12.38
2022-10-03T20:09:23.901Z,11.95
2022-10-03T20:12:01.259Z,11.10
2022-10-03T20:14:36.325Z,11.02
2022-10-03T20:17:05.529Z,9.40
2022-10-03T20:19:54.326Z,10.77
2022-10-03T20:22:26.950Z,10.05
2022-10-03T20:24:53.848Z,10.30
2022-10-03T20:27:39.050Z,12.38
2022-10-03T20:30:24.294Z,11.35
2022-10-03T20:32:51.589Z,11.40
2022-10-03T20:35:35.576Z,13.85
2022-10-03T20:40:38.319Z,14.00
2022-10-03T20:43:41.858Z,22.70
2022-10-03T20:46:30.316Z,24.55
2022-10-03T20:49:13.959Z,22.73
2022-10-03T20:51:55.100Z,21.15
2022-10-03T20:54:24.873Z,20.00
2022-10-03T20:57:15.463Z,17.83
2022-10-03T20:59:47.358Z,16.02
2022-10-03T21:02:58.242Z,16.40
2022-10-03T21:05:36.199Z,12.75
2022-10-03T21:08:18.117Z,12.88
2022-10-03T21:10:49.210Z,10.70
2022-10-03T21:13:42.553Z,10.05
2022-10-03T21:16:38.524Z,10.93
2022-10-03T21:19:29.454Z,9.88
2022-10-03T21:21:59.848Z,8.02
2022-10-03T21:24:30.829Z,7.85
2022-10-03T21:27:13.013Z,9.15
2022-10-03T21:29:41.124Z,8.40
2022-10-03T21:32:14.365Z,8.10
2022-10-03T21:34:46.566Z,9.00
2022-10-03T21:37:19.797Z,9.73
2022-10-03T21:39:52.306Z,13.63
2022-10-03T21:42:23.644Z,11.52
2022-10-03T21:45:05.987Z,11.05
2022-10-03T21:47:50.911Z,11.20
2022-10-03T21:50:25.273Z,9.57
2022-10-03T21:52:57.678Z,8.02
2022-10-03T21:55:52.725Z,8.80
2022-10-03T21:58:28.594Z,9.02
2022-10-03T22:01:22.938Z,9.35
2022-10-03T22:04:00.368Z,10.13
2022-10-03T22:06:42.726Z,8.85
2022-10-03T22:09:14.279Z,8.32
2022-10-03T22:11:44.825Z,10.38
2022-10-03T22:14:45.837Z,12.15
2022-10-03T22:17:35.024Z,11.57
2022-10-03T22:20:17.076Z,9.93
2022-10-03T22:23:04.850Z,10.77
2022-10-03T22:25:44.125Z,10.20
2022-10-03T22:28:32.412Z,10.73
2022-10-03T22:31:25.607Z,9.13
2022-10-03T22:34:23.102Z,9.38
2022-10-03T22:36:50.211Z,9.95
2022-10-03T22:39:18.789Z,9.50
2022-10-03T22:41:50.437Z,10.23
2022-10-03T22:44:19.377Z,10.00
2022-10-03T22:46:49.524Z,9.68
2022-10-03T22:49:25.053Z,8.80
2022-10-03T22:51:54.679Z,9.38
2022-10-03T22:54:23.154Z,10.65
2022-10-03T22:56:54.117Z,10.75
2022-10-03T22:59:28.142Z,10.60
2022-10-03T23:01:58.387Z,9.70
2022-10-03T23:04:40.784Z,11.52
2022-10-03T23:07:36.622Z,9.82
2022-10-03T23:10:24.328Z,10.25
2022-10-03T23:13:05.694Z,11.02
2022-10-03T23:15:35.810Z,9.70
2022-10-03T23:18:08.249Z,9.23
2022-10-03T23:20:48.878Z,8.95
2022-10-03T23:23:22.769Z,9.80
2022-10-03T23:26:29.254Z,8.57
2022-10-03T23:29:12.703Z,8.57
2022-10-03T23:32:08.049Z,8.10
2022-10-03T23:34:34.576Z,10.18
2022-10-03T23:37:13.308Z,9.52
2022-10-03T23:39:41.132Z,8.73
2022-10-03T23:42:18.848Z,9.73
2022-10-03T23:44:58.309Z,9.07
2022-10-03T23:47:38.698Z,9.07
2022-10-03T23:50:06.993Z,9.13
2022-10-03T23:52:46.625Z,7.72
2022-10-03T23:55:21.480Z,6.60
2022-10-03T23:57:50.718Z,8.43
